This is the latest recevied weather packets stored in our database for station/object KC4KQE. If no packets are shown the sender has not sent any weather packets the latest 10 day(s).
| Time | Temp. | Humidity | Pressure | Rain* | Wind** | Luminosity | Snow |
|---|---|---|---|---|---|---|---|
| 1778029756 | 22.22° C | 26% | 1010.6 hPa | 0 mm | - | 79 W/m² | - |
| 1778029456 | 22.22° C | 27% | 1010.5 hPa | 0 mm | - | 79 W/m² | - |
| 1778029156 | 22.78° C | 26% | 1010.5 hPa | 0 mm | - | 93 W/m² | - |
| 1778028856 | 22.78° C | 26% | 1010.5 hPa | 0 mm | - | 105 W/m² | - |
| 1778028556 | 22.78° C | 26% | 1010.4 hPa | 0 mm | - | 102 W/m² | - |
| 1778028256 | 22.78° C | 26% | 1010.3 hPa | 0 mm | - | 111 W/m² | - |
| 1778027956 | 22.78° C | 27% | 1010.3 hPa | 0 mm | - | 134 W/m² | - |
| 1778027656 | 22.78° C | 26% | 1010.2 hPa | 0 mm | - | 127 W/m² | - |
| 1778027356 | 22.78° C | 25% | 1010.3 hPa | 0 mm | - | 135 W/m² | - |
| 1778027056 | 23.33° C | 26% | 1010.3 hPa | 0 mm | - | 190 W/m² | - |
| 1778026757 | 23.33° C | 26% | 1010.1 hPa | 0 mm | - | 148 W/m² | - |
| 1778026458 | 23.89° C | 25% | 1010.1 hPa | 0 mm | - | 169 W/m² | - |
| 1778026156 | 23.89° C | 25% | 1010 hPa | 0 mm | - | 540 W/m² | - |
| 1778025856 | 23.33° C | 25% | 1010.1 hPa | 0 mm | - | 230 W/m² | - |
| 1778025556 | 23.89° C | 25% | 1010.1 hPa | 0 mm | - | 199 W/m² | - |
| 1778025256 | 23.89° C | 25% | 1010.1 hPa | 0 mm | - | 179 W/m² | - |
| 1778024956 | 24.44° C | 25% | 1010 hPa | 0 mm | - | 578 W/m² | - |
| 1778024657 | 23.89° C | 26% | 1009.9 hPa | 0 mm | - | 656 W/m² | - |
| 1778024356 | 23.89° C | 25% | 1009.9 hPa | 0 mm | - | 654 W/m² | - |
| 1778024056 | 24.44° C | 25% | 1010 hPa | 0 mm | - | 155 W/m² | - |
| 1778023756 | 24.44° C | 26% | 1009.9 hPa | 0 mm | - | 670 W/m² | - |
| 1778023456 | 24.44° C | 25% | 1009.9 hPa | 0 mm | - | 687 W/m² | - |
| 1778023156 | 23.89° C | 26% | 1009.9 hPa | 0 mm | - | 390 W/m² | - |
| 1778022856 | 24.44° C | 25% | 1010 hPa | 0 mm | - | 206 W/m² | - |
| 1778022556 | 24.44° C | 25% | 1009.9 hPa | 0 mm | - | 601 W/m² | - |
* Rain latest hour (hover to see other rain measurements)
** Current wind speed in m/s (hover to see current wind gust speed)